Time;durP1;ratioP1;P1;durP2;ratioP2;P2;SDS_P1;SDS_P2;PMS_P1;PMS_P2;Temp;Humidity;BMP_temperature;BMP_pressure;BME280_temperature;BME280_humidity;BME280_pressure;Samples;Min_cycle;Max_cycle;Signal;HPM_P1;HPM_P2
2022/12/18 00:01:41;;;;;;;49.17;28.55;;;;;;;10.31;100.00;100310.19;5073562;28;20020;-41
2022/12/18 00:04:14;;;;;;;52.63;30.05;;;;;;;10.42;100.00;100296.38;5073645;28;20404;-42
2022/12/18 00:06:40;;;;;;;54.40;30.52;;;;;;;10.38;100.00;100289.78;5073516;28;20074;-42
2022/12/18 00:09:05;;;;;;;52.15;29.55;;;;;;;10.39;100.00;100296.75;5073669;28;20032;-42
2022/12/18 00:11:32;;;;;;;53.53;30.75;;;;;;;10.43;100.00;100305.19;5073490;28;20325;-41
2022/12/18 00:13:59;;;;;;;50.30;28.80;;;;;;;10.22;100.00;100319.25;5073410;28;20028;-41
2022/12/18 00:16:26;;;;;;;50.80;28.15;;;;;;;10.20;100.00;100326.59;5073400;28;20032;-41
2022/12/18 00:18:54;;;;;;;51.50;29.00;;;;;;;10.17;100.00;100331.28;5072973;28;20819;-42
2022/12/18 00:21:20;;;;;;;53.00;29.77;;;;;;;10.22;100.00;100346.66;5073290;28;20024;-42
2022/12/18 00:23:48;;;;;;;47.55;27.80;;;;;;;10.26;100.00;100350.63;5073555;28;20035;-42
2022/12/18 00:26:26;;;;;;;47.40;28.10;;;;;;;10.07;100.00;100356.50;5073031;28;20067;-42
2022/12/18 00:28:52;;;;;;;47.42;27.70;;;;;;;10.04;100.00;100352.38;5073006;28;20086;-42
2022/12/18 00:31:21;;;;;;;49.92;29.52;;;;;;;9.94;100.00;100357.16;5072835;28;20140;-42
2022/12/18 00:33:47;;;;;;;51.67;29.35;;;;;;;9.96;100.00;100363.13;5073089;28;20028;-42
2022/12/18 00:36:20;;;;;;;49.53;28.80;;;;;;;10.07;100.00;100370.63;5072776;28;20077;-42
2022/12/18 00:38:46;;;;;;;54.05;30.92;;;;;;;10.03;100.00;100366.66;5073026;28;20067;-42
2022/12/18 00:41:13;;;;;;;52.30;30.15;;;;;;;9.92;100.00;100364.50;5072723;28;20016;-42
2022/12/18 00:43:39;;;;;;;50.00;29.55;;;;;;;9.76;100.00;100368.97;5072756;28;20045;-42
2022/12/18 00:46:05;;;;;;;53.58;30.30;;;;;;;9.75;100.00;100382.47;5072822;28;20032;-43
2022/12/18 00:48:32;;;;;;;53.63;30.88;;;;;;;9.70;100.00;100388.31;5072604;28;20033;-43
2022/12/18 00:50:57;;;;;;;53.97;31.17;;;;;;;10.12;100.00;100399.31;5072644;28;20371;-43
2022/12/18 00:53:23;;;;;;;57.67;32.00;;;;;;;10.13;100.00;100391.16;5072750;28;20413;-43
2022/12/18 00:55:48;;;;;;;49.85;29.10;;;;;;;9.90;100.00;100395.75;5072877;28;20029;-43
2022/12/18 00:58:15;;;;;;;55.28;28.52;;;;;;;9.79;100.00;100381.91;5073207;28;20032;-43
2022/12/18 01:00:41;;;;;;;61.08;29.45;;;;;;;9.74;100.00;100394.91;5073016;28;20023;-43
2022/12/18 01:03:07;;;;;;;69.20;28.50;;;;;;;9.74;100.00;100386.13;5073206;28;20491;-43
2022/12/18 01:05:33;;;;;;;68.97;30.55;;;;;;;9.86;100.00;100384.66;5073389;28;20029;-43
2022/12/18 01:07:59;;;;;;;62.47;28.65;;;;;;;9.96;100.00;100382.56;5071801;28;20032;-43
2022/12/18 01:10:25;;;;;;;59.88;28.73;;;;;;;9.73;100.00;100385.28;5072844;28;20017;-42
2022/12/18 01:12:55;;;;;;;61.70;29.15;;;;;;;9.61;100.00;100376.09;5071537;28;20407;-43
2022/12/18 01:15:20;;;;;;;50.25;28.35;;;;;;;9.73;100.00;100387.97;5073009;28;20029;-44
2022/12/18 01:17:46;;;;;;;51.75;29.17;;;;;;;9.68;100.00;100386.84;5072697;28;20469;-44
2022/12/18 01:20:12;;;;;;;49.05;27.30;;;;;;;9.55;100.00;100379.50;5072365;28;20101;-43
2022/12/18 01:22:38;;;;;;;49.72;27.65;;;;;;;9.52;100.00;100367.41;5072956;28;20021;-44
2022/12/18 01:25:04;;;;;;;53.90;28.50;;;;;;;9.76;100.00;100373.47;5072834;28;20024;-43
2022/12/18 01:27:30;;;;;;;51.25;27.60;;;;;;;9.50;100.00;100377.41;5072481;28;20028;-43
2022/12/18 01:29:55;;;;;;;45.25;25.90;;;;;;;9.56;100.00;100381.16;5072366;28;20025;-43
2022/12/18 01:32:21;;;;;;;52.70;28.98;;;;;;;9.48;100.00;100373.25;5072531;28;20162;-43
2022/12/18 01:34:47;;;;;;;46.88;27.77;;;;;;;9.55;100.00;100377.66;5072418;28;20038;-43
2022/12/18 01:37:12;;;;;;;50.13;27.60;;;;;;;9.71;100.00;100375.84;5072471;28;20484;-43
2022/12/18 01:39:38;;;;;;;46.67;27.27;;;;;;;9.70;100.00;100375.03;5072210;28;20028;-41
2022/12/18 01:42:09;;;;;;;48.53;29.10;;;;;;;9.73;100.00;100379.16;5071971;28;20025;-43
2022/12/18 01:45:00;;;;;;;45.53;27.20;;;;;;;9.64;100.00;100370.44;5072791;28;20057;-42
2022/12/18 01:47:29;;;;;;;46.80;27.77;;;;;;;9.76;100.00;100374.28;5072016;28;20031;-42
2022/12/18 01:49:57;;;;;;;47.42;27.85;;;;;;;9.66;100.00;100373.75;5071864;28;20027;-42
2022/12/18 01:52:25;;;;;;;47.15;27.00;;;;;;;9.54;100.00;100373.38;5071998;28;20074;-41
2022/12/18 01:54:52;;;;;;;47.33;27.40;;;;;;;9.70;100.00;100387.50;5072386;28;20025;-42
2022/12/18 01:57:19;;;;;;;45.53;27.23;;;;;;;9.70;100.00;100377.69;5072519;28;20263;-42
2022/12/18 01:59:49;;;;;;;45.33;27.38;;;;;;;9.73;100.00;100377.31;5071805;28;20021;-42
2022/12/18 02:02:16;;;;;;;38.63;24.88;;;;;;;9.72;100.00;100375.66;5071766;28;20024;-42
2022/12/18 02:04:42;;;;;;;41.88;25.48;;;;;;;9.78;100.00;100385.56;5072187;28;20175;-42
2022/12/18 02:07:20;;;;;;;38.85;23.25;;;;;;;9.76;100.00;100384.91;5071918;28;20017;-42
2022/12/18 02:09:58;;;;;;;42.97;21.58;;;;;;;9.99;100.00;100389.31;5071756;28;20074;-42
2022/12/18 02:12:28;;;;;;;33.90;21.55;;;;;;;10.16;100.00;100405.91;5071347;28;20027;-42
2022/12/18 02:15:04;;;;;;;35.33;21.80;;;;;;;10.23;100.00;100400.69;5071533;28;20034;-37
2022/12/18 02:17:38;;;;;;;31.50;19.17;;;;;;;10.41;100.00;100397.66;5070779;28;20048;-37
2022/12/18 02:20:09;;;;;;;29.02;17.85;;;;;;;10.40;100.00;100410.16;5071077;28;20017;-38
2022/12/18 02:22:49;;;;;;;28.92;16.85;;;;;;;10.46;100.00;100408.59;5071180;28;20441;-35
2022/12/18 02:25:39;;;;;;;26.30;17.17;;;;;;;10.63;100.00;100411.84;5071599;28;20028;-37
2022/12/18 02:28:08;;;;;;;25.75;17.02;;;;;;;10.61;100.00;100413.88;5071191;28;20476;-37
2022/12/18 02:30:35;;;;;;;;;;;;;;;10.55;100.00;100418.13;5071946;28;20028;-36
2022/12/18 02:33:03;;;;;;;26.67;16.35;;;;;;;10.54;100.00;100401.31;5070980;28;20321;-36
2022/12/18 02:35:31;;;;;;;25.55;16.38;;;;;;;10.64;100.00;100413.50;5070850;28;20454;-36
2022/12/18 02:37:58;;;;;;;26.73;16.25;;;;;;;10.60;100.00;100405.06;5071162;28;20024;-36
2022/12/18 02:40:27;;;;;;;25.75;16.17;;;;;;;10.64;100.00;100401.03;5070857;28;20502;-36
2022/12/18 02:42:52;;;;;;;25.30;15.80;;;;;;;10.67;100.00;100403.28;5070951;28;20103;-36
2022/12/18 02:45:18;;;;;;;23.90;15.32;;;;;;;10.79;99.26;100403.63;5070937;28;20119;-37
2022/12/18 02:47:47;;;;;;;24.83;14.98;;;;;;;10.84;98.11;100403.06;5070857;28;20020;-37
2022/12/18 02:50:26;;;;;;;;;;;;;;;10.91;97.66;100401.31;5071110;28;20055;-37
2022/12/18 02:53:29;;;;;;;24.15;14.90;;;;;;;10.79;98.17;100402.81;5070756;28;20003;-37
2022/12/18 02:56:15;;;;;;;21.25;14.30;;;;;;;10.84;98.02;100409.22;5048176;28;20097;-38
2022/12/18 02:58:40;;;;;;;25.95;14.98;;;;;;;10.76;97.12;100399.50;5070584;28;20029;-37
2022/12/18 03:01:23;;;;;;;24.25;14.73;;;;;;;10.60;98.75;100407.72;5070491;28;20051;-37
2022/12/18 03:03:57;;;;;;;24.70;15.15;;;;;;;10.72;98.30;100402.75;5070759;28;20107;-37
2022/12/18 03:06:33;;;;;;;23.80;14.48;;;;;;;10.88;96.89;100407.00;5070540;28;20027;-37
2022/12/18 03:09:04;;;;;;;22.85;14.73;;;;;;;10.75;97.58;100410.34;5070679;28;20020;-37
2022/12/18 03:14:21;;;;;;;23.95;15.25;;;;;;;10.60;99.36;100413.03;5070652;28;20031;-35
2022/12/18 03:16:53;;;;;;;24.00;14.63;;;;;;;10.73;98.46;100407.88;5070233;28;20037;-37
2022/12/18 03:19:23;;;;;;;21.45;14.27;;;;;;;10.85;97.89;100415.34;5070334;28;20044;-37
2022/12/18 03:21:53;;;;;;;21.42;13.68;;;;;;;10.75;97.53;100421.00;5070109;28;20039;-36
2022/12/18 03:24:20;;;;;;;22.73;14.18;;;;;;;10.79;96.60;100422.25;5070583;28;20048;-35
2022/12/18 03:26:52;;;;;;;22.65;14.25;;;;;;;10.75;97.08;100418.31;5070263;28;20063;-36
2022/12/18 03:29:19;;;;;;;22.35;13.90;;;;;;;10.62;98.22;100420.84;5069642;28;20454;-36
2022/12/18 03:31:51;;;;;;;21.23;13.88;;;;;;;10.76;97.67;100426.13;5069419;28;20424;-36
2022/12/18 03:34:23;;;;;;;23.35;14.23;;;;;;;10.58;98.46;100431.03;5070225;28;20079;-37
2022/12/18 03:36:49;;;;;;;19.55;13.57;;;;;;;10.58;98.01;100433.69;5070384;28;20024;-37
2022/12/18 03:39:14;;;;;;;23.75;14.73;;;;;;;10.74;97.07;100435.31;5070166;28;20036;-37
2022/12/18 03:42:00;;;;;;;22.08;13.57;;;;;;;10.63;97.35;100444.63;5069821;28;20051;-38
2022/12/18 03:44:31;;;;;;;18.90;12.15;;;;;;;10.32;98.29;100445.66;5070110;28;20111;-36
2022/12/18 03:47:20;;;;;;;19.08;12.13;;;;;;;10.50;97.57;100458.56;5070098;28;20107;-36
2022/12/18 03:50:01;;;;;;;18.08;12.05;;;;;;;10.55;96.98;100461.50;5069833;28;20134;-37
2022/12/18 03:52:36;;;;;;;19.60;12.05;;;;;;;10.68;95.70;100470.66;5070235;28;20165;-37
2022/12/18 03:55:05;;;;;;;17.23;11.90;;;;;;;10.67;95.73;100466.38;5069385;28;20125;-36
2022/12/18 03:57:32;;;;;;;17.42;11.20;;;;;;;10.59;96.34;100477.13;5068569;28;20086;-36
2022/12/18 04:00:04;;;;;;;17.40;11.48;;;;;;;10.61;95.74;100473.25;5069604;28;20433;-36
2022/12/18 04:02:31;;;;;;;16.42;11.35;;;;;;;10.62;95.14;100479.41;5069860;28;20102;-36
2022/12/18 04:05:00;;;;;;;17.05;11.50;;;;;;;10.60;95.22;100447.63;5070006;28;20040;-37
2022/12/18 04:07:27;;;;;;;17.77;10.97;;;;;;;10.57;95.65;100480.78;5070071;28;20063;-36
2022/12/18 04:09:56;;;;;;;16.55;10.90;;;;;;;10.62;95.76;100487.38;5069551;28;20027;-37
2022/12/18 04:12:25;;;;;;;15.43;10.38;;;;;;;10.36;97.16;100483.38;5069745;28;20536;-37
2022/12/18 04:14:50;;;;;;;15.27;10.57;;;;;;;10.32;97.14;100488.22;5069827;28;20028;-37
2022/12/18 04:17:16;;;;;;;16.55;9.93;;;;;;;10.31;96.42;100491.88;5069233;28;20053;-36
2022/12/18 04:19:41;;;;;;;16.80;10.88;;;;;;;10.24;96.32;100487.47;5069057;28;20043;-36
2022/12/18 04:22:10;;;;;;;15.52;10.88;;;;;;;10.51;95.42;100478.06;5069404;28;20108;-36
2022/12/18 04:24:35;;;;;;;17.58;11.20;;;;;;;10.50;95.08;100484.38;5069636;28;20037;-36
2022/12/18 04:27:01;;;;;;;15.10;9.88;;;;;;;10.57;94.34;100490.63;5069436;28;20035;-36
2022/12/18 04:29:26;;;;;;;15.60;10.27;;;;;;;10.65;94.34;100498.50;5069655;28;20021;-36
2022/12/18 04:31:51;;;;;;;13.43;9.57;;;;;;;10.46;94.30;100491.06;5069305;28;20103;-36
2022/12/18 04:34:17;;;;;;;13.93;8.90;;;;;;;10.24;94.19;100498.09;5069712;28;20104;-35
2022/12/18 04:36:42;;;;;;;15.10;9.35;;;;;;;10.20;94.35;100494.97;5069753;28;20020;-36
2022/12/18 04:39:08;;;;;;;13.95;8.73;;;;;;;10.20;93.84;100505.63;5069957;28;20524;-36
2022/12/18 04:41:33;;;;;;;12.68;7.85;;;;;;;9.69;95.88;100498.31;5070702;28;20471;-37
2022/12/18 04:43:59;;;;;;;12.40;7.60;;;;;;;9.69;96.21;100500.97;5073079;28;20116;-42
2022/12/18 04:46:24;;;;;;;12.27;8.25;;;;;;;9.93;95.25;100509.72;5073084;28;20465;-45
2022/12/18 04:48:49;;;;;;;13.77;7.80;;;;;;;9.81;95.17;100513.81;5072776;28;20029;-46
2022/12/18 04:51:15;;;;;;;13.45;7.95;;;;;;;9.84;94.36;100516.91;5072595;28;20101;-44
2022/12/18 04:53:40;;;;;;;11.52;7.38;;;;;;;9.67;94.94;100528.69;5072518;28;20028;-44
2022/12/18 04:56:09;;;;;;;8.57;6.63;;;;;;;9.66;93.50;100530.53;5072782;28;20040;-44
2022/12/18 04:58:36;;;;;;;10.45;7.13;;;;;;;9.57;94.69;100536.91;5072863;28;20063;-44
2022/12/18 05:01:01;;;;;;;10.77;6.53;;;;;;;9.83;92.50;100531.22;5072709;28;20036;-42
2022/12/18 05:03:27;;;;;;;9.88;6.20;;;;;;;9.43;93.67;100543.84;5072376;28;20020;-42
2022/12/18 05:05:52;;;;;;;11.45;6.30;;;;;;;9.48;93.99;100543.28;5072769;28;20115;-43
2022/12/18 05:08:18;;;;;;;9.57;6.13;;;;;;;9.40;93.66;100546.81;5072577;28;20024;-43
2022/12/18 05:10:43;;;;;;;8.15;6.03;;;;;;;9.40;94.33;100546.81;5072203;28;20052;-43
2022/12/18 05:13:09;;;;;;;8.98;5.97;;;;;;;9.49;93.12;100547.63;5072136;28;20023;-43
2022/12/18 05:15:35;;;;;;;7.95;5.63;;;;;;;9.45;92.71;100555.09;5072230;28;20518;-44
2022/12/18 05:18:01;;;;;;;7.60;5.50;;;;;;;9.38;92.90;100562.13;5072183;28;20064;-44
2022/12/18 05:20:27;;;;;;;8.55;5.43;;;;;;;9.02;94.06;100561.81;5071673;28;20130;-43
2022/12/18 05:22:54;;;;;;;7.47;5.30;;;;;;;9.33;92.69;100575.13;5072407;28;20047;-44
2022/12/18 05:25:20;;;;;;;8.35;5.60;;;;;;;9.42;92.88;100579.34;5071927;28;20058;-44
2022/12/18 05:27:45;;;;;;;9.10;5.70;;;;;;;9.62;91.27;100581.56;5072350;28;20099;-44
2022/12/18 05:30:11;;;;;;;7.95;5.43;;;;;;;9.81;90.71;100588.25;5071955;28;20047;-44
2022/12/18 05:32:37;;;;;;;9.15;6.35;;;;;;;9.51;92.29;100599.56;5072275;28;20104;-44
2022/12/18 05:35:05;;;;;;;8.18;5.90;;;;;;;9.63;91.40;100601.81;5071973;28;20432;-43
2022/12/18 05:37:30;;;;;;;9.77;6.70;;;;;;;9.71;91.63;100607.91;5072311;28;20028;-44
2022/12/18 05:39:55;;;;;;;9.50;6.53;;;;;;;9.47;92.38;100608.88;5071707;28;20025;-42
2022/12/18 05:42:21;;;;;;;10.90;6.18;;;;;;;9.36;93.13;100615.41;5071716;28;20028;-43
2022/12/18 05:44:46;;;;;;;9.18;6.47;;;;;;;9.23;93.52;100614.34;5072113;28;20082;-45
2022/12/18 05:47:12;;;;;;;9.88;6.63;;;;;;;9.27;93.02;100616.47;5071555;28;20016;-43
2022/12/18 05:49:37;;;;;;;9.32;6.28;;;;;;;9.41;92.20;100627.38;5071439;28;20019;-43
2022/12/18 05:52:03;;;;;;;10.07;6.35;;;;;;;9.61;91.00;100625.09;5071156;28;20025;-44
2022/12/18 05:54:28;;;;;;;7.75;5.70;;;;;;;9.36;91.96;100634.00;5070995;28;20020;-45
2022/12/18 05:56:53;;;;;;;9.23;5.85;;;;;;;9.63;90.64;100634.53;5071030;28;20035;-44
2022/12/18 05:59:19;;;;;;;9.68;6.22;;;;;;;9.35;91.74;100634.22;5071477;28;20024;-44
2022/12/18 06:01:45;;;;;;;9.07;6.15;;;;;;;9.34;91.57;100641.31;5071149;28;20090;-46
2022/12/18 06:04:11;;;;;;;9.32;5.90;;;;;;;9.15;91.03;100644.41;5071526;28;20647;-44
2022/12/18 06:06:36;;;;;;;7.63;5.55;;;;;;;9.44;90.12;100645.59;5071234;28;20039;-44
2022/12/18 06:09:07;;;;;;;8.73;5.32;;;;;;;9.16;89.19;100643.41;5071201;28;20032;-44
2022/12/18 06:11:34;;;;;;;6.78;5.30;;;;;;;8.87;90.80;100636.88;5070952;28;20060;-45
2022/12/18 06:14:00;;;;;;;7.53;5.70;;;;;;;9.00;90.04;100641.63;5071129;28;20028;-44
2022/12/18 06:16:27;;;;;;;10.55;6.32;;;;;;;9.35;89.46;100648.31;5071322;28;20055;-44
2022/12/18 06:18:53;;;;;;;12.63;7.35;;;;;;;9.33;89.02;100660.94;5070551;28;20481;-45
2022/12/18 06:21:19;;;;;;;10.38;6.00;;;;;;;9.31;88.22;100664.75;5070833;28;20031;-45
2022/12/18 06:23:44;;;;;;;10.63;6.20;;;;;;;9.30;88.45;100666.59;5070910;28;20029;-44
2022/12/18 06:26:12;;;;;;;43.40;24.38;;;;;;;9.35;88.29;100666.91;5070757;28;20105;-44
2022/12/18 06:28:38;;;;;;;7.90;5.53;;;;;;;9.16;88.64;100675.28;5070734;28;20385;-44
2022/12/18 06:31:05;;;;;;;7.60;5.22;;;;;;;9.28;87.87;100673.91;5070820;28;20032;-44
2022/12/18 06:33:30;;;;;;;9.35;5.80;;;;;;;9.55;86.70;100675.25;5070721;28;20493;-44
2022/12/18 06:36:08;;;;;;;7.65;5.70;;;;;;;9.41;86.99;100683.97;5070972;28;20031;-46
2022/12/18 06:38:35;;;;;;;9.02;5.72;;;;;;;9.26;87.60;100691.84;5070716;28;20074;-45
2022/12/18 06:41:05;;;;;;;8.88;5.65;;;;;;;9.75;86.41;100686.31;5070627;28;20024;-45
2022/12/18 06:43:30;;;;;;;8.07;5.32;;;;;;;9.45;86.34;100700.41;5070817;28;20043;-45
2022/12/18 06:46:00;;;;;;;8.00;5.20;;;;;;;9.17;86.81;100704.31;5070369;28;20484;-43
2022/12/18 06:48:26;;;;;;;9.95;5.13;;;;;;;9.44;85.79;100706.72;5070595;28;20039;-44
2022/12/18 06:50:51;;;;;;;7.75;5.38;;;;;;;9.62;85.71;100717.13;5070171;28;20388;-44
2022/12/18 06:53:17;;;;;;;7.65;5.32;;;;;;;9.61;84.72;100712.78;5070312;28;20029;-44
2022/12/18 06:55:43;;;;;;;7.28;5.10;;;;;;;9.44;85.62;100709.38;5070372;28;20662;-46
2022/12/18 06:58:08;;;;;;;8.38;5.55;;;;;;;9.47;85.93;100725.78;5070244;28;20020;-44
2022/12/18 07:00:34;;;;;;;7.50;5.07;;;;;;;9.48;85.16;100727.47;5069587;28;20070;-44
2022/12/18 07:02:59;;;;;;;7.18;5.28;;;;;;;9.33;85.92;100722.03;5070370;28;20028;-44
2022/12/18 07:05:24;;;;;;;9.95;5.43;;;;;;;9.23;86.33;100720.56;5069215;28;20142;-45
2022/12/18 07:07:50;;;;;;;8.95;5.53;;;;;;;9.41;85.91;100728.31;5070104;28;20028;-44
2022/12/18 07:10:15;;;;;;;8.88;5.35;;;;;;;9.36;86.61;100737.63;5070468;28;20020;-44
2022/12/18 07:12:41;;;;;;;8.00;5.65;;;;;;;9.57;85.43;100722.94;5069922;28;20448;-43
2022/12/18 07:15:07;;;;;;;9.02;5.72;;;;;;;9.66;84.84;100732.53;5069813;28;20063;-44
2022/12/18 07:17:32;;;;;;;22.33;12.13;;;;;;;9.38;86.74;100743.59;5069261;28;20068;-43
2022/12/18 07:19:57;;;;;;;12.82;8.23;;;;;;;10.03;83.29;100732.81;5069383;28;20021;-44
2022/12/18 07:22:25;;;;;;;8.80;5.63;;;;;;;9.63;84.27;100737.34;5069182;28;20548;-44
2022/12/18 07:24:50;;;;;;;8.65;5.70;;;;;;;9.54;85.75;100741.91;5069540;28;20059;-43
2022/12/18 07:27:16;;;;;;;10.30;6.22;;;;;;;9.62;83.75;100749.81;5069337;28;20135;-44
2022/12/18 07:29:41;;;;;;;9.38;6.47;;;;;;;9.73;83.88;100751.28;5069259;28;20056;-43
2022/12/18 07:32:07;;;;;;;10.50;6.78;;;;;;;9.61;84.70;100752.66;5068177;28;20036;-45
2022/12/18 07:34:32;;;;;;;10.02;6.53;;;;;;;9.66;84.91;100759.09;5068886;28;20067;-44
2022/12/18 07:36:58;;;;;;;9.52;6.40;;;;;;;9.80;83.54;100754.88;5069254;28;20031;-43
2022/12/18 07:39:23;;;;;;;8.85;5.80;;;;;;;9.37;84.33;100749.09;5069309;28;20058;-44
2022/12/18 07:42:30;;;;;;;9.32;5.78;;;;;;;9.51;85.02;100758.16;5069206;28;20033;-43
2022/12/18 07:44:34;;;;;;;8.48;5.55;;;;;;;9.70;83.44;100763.06;5069105;28;20060;-44
2022/12/18 07:46:59;;;;;;;9.93;5.50;;;;;;;9.79;82.77;100762.03;5068981;28;20052;-44
2022/12/18 07:49:25;;;;;;;8.73;5.90;;;;;;;9.76;82.98;100765.03;5064261;28;20111;-44
2022/12/18 07:51:50;;;;;;;9.35;5.90;;;;;;;9.54;82.83;100771.94;5050042;28;20029;-44
2022/12/18 07:54:16;;;;;;;20.77;13.82;;;;;;;9.88;81.97;100780.59;5048762;28;20029;-43
2022/12/18 07:56:41;;;;;;;9.63;6.38;;;;;;;9.81;80.97;100779.66;5054203;28;20078;-43
2022/12/18 07:59:07;;;;;;;8.52;5.55;;;;;;;9.58;81.20;100789.19;5067311;28;20112;-43
2022/12/18 08:01:34;;;;;;;9.40;5.80;;;;;;;9.84;81.39;100785.44;5059686;28;20485;-45
2022/12/18 08:03:59;;;;;;;9.32;6.20;;;;;;;9.98;79.76;100791.88;5066550;28;20103;-42
2022/12/18 08:06:25;;;;;;;12.45;6.30;;;;;;;10.19;79.50;100807.22;5053222;28;20469;-43
2022/12/18 08:08:52;;;;;;;9.85;6.03;;;;;;;10.08;78.95;100795.13;5047965;28;20032;-44
2022/12/18 08:11:18;;;;;;;12.35;6.20;;;;;;;10.07;79.45;100805.94;5051347;28;20162;-44
2022/12/18 08:13:43;;;;;;;11.20;6.00;;;;;;;9.85;78.78;100763.19;5068279;28;20054;-42
2022/12/18 08:16:09;;;;;;;10.30;5.93;;;;;;;10.28;78.07;100810.63;5068946;28;20028;-42
2022/12/18 08:18:36;;;;;;;9.27;6.50;;;;;;;10.46;77.01;100807.75;5071614;28;20049;-44
2022/12/18 08:21:13;;;;;;;9.52;5.55;;;;;;;10.29;77.48;100821.09;5071575;28;20024;-44
2022/12/18 08:23:39;;;;;;;10.90;6.50;;;;;;;10.29;78.51;100814.97;5071709;28;20148;-42
2022/12/18 08:26:05;;;;;;;9.68;6.10;;;;;;;9.99;78.75;100817.44;5071198;28;20035;-44
2022/12/18 08:28:30;;;;;;;8.15;5.35;;;;;;;10.15;77.02;100825.34;5071167;28;20020;-43
2022/12/18 08:30:55;;;;;;;8.30;5.75;;;;;;;10.15;77.19;100824.53;5071093;28;20158;-43
2022/12/18 08:33:21;;;;;;;8.65;5.28;;;;;;;10.20;76.90;100829.31;5071579;28;20028;-43
2022/12/18 08:35:46;;;;;;;11.20;7.53;;;;;;;10.17;76.68;100828.66;5071662;28;20052;-44
2022/12/18 08:38:12;;;;;;;8.65;5.75;;;;;;;10.18;76.42;100816.19;5072323;28;20029;-44
2022/12/18 08:40:37;;;;;;;10.00;6.15;;;;;;;10.59;75.17;100821.28;5071845;28;20028;-43
2022/12/18 08:45:46;;;;;;;9.82;5.70;;;;;;;10.33;75.76;100816.31;5072911;28;20458;-43
2022/12/18 08:48:12;;;;;;;10.05;6.13;;;;;;;10.33;76.00;100808.31;5072103;28;20644;-43
2022/12/18 08:50:37;;;;;;;10.00;6.10;;;;;;;10.27;75.84;100815.13;5071855;28;20025;-44
2022/12/18 08:53:03;;;;;;;7.72;5.30;;;;;;;10.16;75.74;100819.00;5071777;28;20111;-43
2022/12/18 08:55:28;;;;;;;11.10;5.60;;;;;;;10.35;75.29;100806.31;5071599;28;20028;-44
2022/12/18 08:57:54;;;;;;;9.93;5.90;;;;;;;10.56;74.67;100811.81;5071675;28;20107;-44
2022/12/18 09:00:19;;;;;;;9.70;5.88;;;;;;;10.73;73.96;100806.38;5071814;28;20020;-43
2022/12/18 09:02:45;;;;;;;9.88;5.85;;;;;;;10.35;75.32;100803.66;5070261;28;20067;-43
2022/12/18 09:05:10;;;;;;;8.32;5.63;;;;;;;10.32;74.61;100802.19;5071803;28;20491;-44
2022/12/18 09:07:36;;;;;;;9.13;5.22;;;;;;;10.47;74.13;100802.25;5071749;28;20062;-45
2022/12/18 09:10:01;;;;;;;7.45;5.60;;;;;;;10.59;74.75;100802.66;5071489;28;20025;-43
2022/12/18 09:12:27;;;;;;;11.63;6.07;;;;;;;10.61;73.84;100810.47;5071787;28;20606;-43
2022/12/18 09:14:52;;;;;;;9.65;5.50;;;;;;;10.66;74.05;100808.94;5071621;28;20145;-44
2022/12/18 09:17:18;;;;;;;8.85;5.28;;;;;;;10.67;74.44;100812.41;5070025;28;20120;-46
2022/12/18 09:19:43;;;;;;;8.30;4.85;;;;;;;10.59;73.61;100808.00;5071144;28;20123;-44
2022/12/18 09:22:09;;;;;;;12.02;7.35;;;;;;;10.69;73.30;100805.91;5071615;28;20028;-43
2022/12/18 09:24:35;;;;;;;9.40;5.78;;;;;;;10.85;72.03;100798.78;5071312;28;20024;-44
2022/12/18 09:27:00;;;;;;;9.30;5.57;;;;;;;10.52;73.92;100812.34;5071115;28;20021;-43
2022/12/18 09:29:26;;;;;;;7.55;5.05;;;;;;;10.56;72.55;100817.13;5070485;28;20028;-44
2022/12/18 09:31:51;;;;;;;8.60;5.63;;;;;;;10.84;72.14;100805.97;5071305;28;20047;-44
2022/12/18 09:34:17;;;;;;;9.15;5.80;;;;;;;10.96;72.36;100812.50;5071345;28;20024;-44
2022/12/18 09:36:42;;;;;;;9.10;5.70;;;;;;;10.58;73.36;100816.97;5071337;28;20031;-43
2022/12/18 09:39:08;;;;;;;7.75;5.82;;;;;;;10.38;72.95;100813.94;5070725;28;20028;-44
2022/12/18 09:41:57;;;;;;;8.60;5.60;;;;;;;10.15;74.50;100814.72;5071240;28;20024;-43
2022/12/18 09:44:46;;;;;;;9.57;5.90;;;;;;;10.29;74.70;100804.31;5071953;28;20032;-44
2022/12/18 09:47:18;;;;;;;8.77;6.20;;;;;;;10.43;74.24;100816.88;5071522;28;20093;-43
2022/12/18 09:49:46;;;;;;;9.38;5.88;;;;;;;10.19;74.12;100799.22;5070319;28;20077;-43
2022/12/18 09:52:21;;;;;;;10.73;6.30;;;;;;;10.54;73.76;100807.69;5069616;28;20504;-43
2022/12/18 09:54:53;;;;;;;8.02;5.82;;;;;;;10.58;73.45;100808.97;5066171;28;20389;-43
2022/12/18 09:57:22;;;;;;;11.23;6.15;;;;;;;10.89;72.51;100814.25;5067237;28;20063;-43
2022/12/18 09:59:56;;;;;;;9.88;5.82;;;;;;;10.49;73.72;100815.34;5050813;28;20596;-43
2022/12/18 10:02:26;;;;;;;9.65;6.47;;;;;;;10.90;72.40;100809.75;5057546;28;20064;-44
2022/12/18 10:05:03;;;;;;;;;;;;;;;10.94;71.03;100803.84;5061628;28;20037;-44
2022/12/18 10:07:41;;;;;;;10.00;6.20;;;;;;;11.07;71.61;100808.59;5060477;28;19958;-42
2022/12/18 10:10:19;;;;;;;14.02;7.68;;;;;;;11.30;71.33;100813.03;5070724;28;20098;-37
2022/12/18 10:13:09;;;;;;;11.30;7.13;;;;;;;11.16;70.83;100812.00;5065516;28;20062;-37
2022/12/18 10:16:15;;;;;;;9.45;6.47;;;;;;;10.96;72.33;100809.00;5060070;28;20033;-37
2022/12/18 10:18:50;;;;;;;8.80;6.20;;;;;;;10.89;72.88;100803.59;5050665;28;20060;-37
2022/12/18 10:21:23;;;;;;;11.25;6.72;;;;;;;10.72;72.90;100805.56;5050804;28;20025;-36
2022/12/18 10:23:49;;;;;;;12.15;7.00;;;;;;;10.51;73.38;100814.19;5051065;28;20040;-36
2022/12/18 10:26:14;;;;;;;11.88;6.05;;;;;;;10.69;72.86;100811.22;5051005;28;20020;-36
2022/12/18 10:28:41;;;;;;;9.63;6.32;;;;;;;10.64;73.10;100816.28;5050852;28;20428;-36
2022/12/18 10:31:21;;;;;;;10.88;6.57;;;;;;;11.19;71.29;100803.63;5050932;28;20020;-37
2022/12/18 10:33:47;;;;;;;;;;;;;;;12.18;96.63;100818.53;5053953;28;20040;-37
2022/12/18 10:36:12;;;;;;;12.73;7.93;;;;;;;13.06;67.87;100811.16;5069435;28;19909;-37
2022/12/18 10:38:38;;;;;;;10.05;5.88;;;;;;;12.15;68.08;100813.56;5070513;28;20024;-37
2022/12/18 10:41:26;;;;;;;10.13;6.82;;;;;;;11.81;69.50;100807.81;5070767;28;20052;-37
2022/12/18 10:44:10;;;;;;;9.60;6.47;;;;;;;11.40;70.09;100820.75;5070069;28;20033;-37
2022/12/18 10:46:36;;;;;;;10.40;6.45;;;;;;;11.11;70.30;100819.72;5070556;28;20021;-36
2022/12/18 10:49:01;;;;;;;10.00;6.55;;;;;;;10.95;71.04;100832.16;5070424;28;20571;-37
2022/12/18 10:51:37;;;;;;;10.65;6.15;;;;;;;10.91;71.05;100827.38;5067352;28;20074;-43
2022/12/18 10:54:04;;;;;;;9.18;6.07;;;;;;;10.73;71.91;100833.00;5065301;28;20047;-37
2022/12/18 10:56:33;;;;;;;11.40;6.80;;;;;;;10.66;71.97;100837.38;5069379;28;20091;-36
2022/12/18 10:59:11;;;;;;;10.50;6.38;;;;;;;10.70;71.57;100846.66;5069292;28;20043;-36
2022/12/18 11:01:50;;;;;;;12.18;6.65;;;;;;;10.73;72.66;100846.31;5065690;28;20081;-36
2022/12/18 11:04:19;;;;;;;10.55;6.75;;;;;;;10.52;72.44;100854.94;5069547;28;20079;-37
2022/12/18 11:06:58;;;;;;;10.30;6.70;;;;;;;10.32;73.66;100841.28;5070362;28;20104;-37
2022/12/18 11:09:32;;;;;;;12.00;7.25;;;;;;;10.30;74.98;100857.41;5060854;28;20078;-37
2022/12/18 11:12:00;;;;;;;12.35;7.18;;;;;;;10.49;73.81;100856.13;5053106;28;20029;-37
2022/12/18 11:14:30;;;;;;;10.27;6.23;;;;;;;10.02;76.50;100858.84;5058300;28;20031;-37
2022/12/18 11:16:58;;;;;;;9.15;6.45;;;;;;;10.35;74.79;100855.03;5050630;28;20045;-37
2022/12/18 11:19:32;;;;;;;9.93;6.78;;;;;;;10.33;74.56;100874.84;5060764;28;20033;-35
2022/12/18 11:21:59;;;;;;;11.32;7.15;;;;;;;10.57;73.83;100872.03;5069497;28;20385;-37
2022/12/18 11:24:33;;;;;;;11.43;7.00;;;;;;;10.54;73.42;100875.03;5070085;28;20029;-36
2022/12/18 11:27:01;;;;;;;11.15;6.78;;;;;;;10.34;74.90;100855.22;5069840;28;20038;-36
2022/12/18 11:29:38;;;;;;;9.70;6.80;;;;;;;10.14;76.42;100874.22;5069964;28;20016;-36
2022/12/18 11:32:25;;;;;;;10.77;6.70;;;;;;;10.37;75.60;100873.47;5070463;28;20028;-35